PWSweather.com
Personal Weather Stations
Station Observations
KCOFORTM15
Fort Morgan, CO

Fort Morgan, CO

Lat: 40.26, Lon: -103.784

Elevation: 4724

Station Type:

High Low Average
Temperature 101.3°F38.5°C 59.4°F15.2°C 77.9°F25.5°C
Dew Point 66.0°F18.9°C 39.0°F3.9°C 58.2°F14.6°C
Winds 6.5 mph 10.5 kmh Calm Calm 1.0 mph S1.6 kmh S
Wind Gusts 8.1 mph13.0 kmh -- 1.0 mph1.6 kmh
Humidity 93% 13% 57%
Pressure 29.81 in1009.5 mb 29.73 in1006.8 mb -
Precipitation 0.00 in0.0 mm - -
Hour Temp Dew Point Humidity Winds Wind Gusts Pressure Precip Precip Rate Daily Precip Total
12:00 AM 75.4°F24.1°C 58.6°F14.8°C 56% 3.4 mph SE5.5 kmh SE 5.8 mph9.3 kmh 29.75 in1007.5 mb 0.00 in0.0 mm 0.00 in0.0 mm 0.00 in0.0 mm
12:05 AM 75.0°F23.9°C 58.8°F14.9°C 57% 2.7 mph SSW4.3 kmh SSW 4.5 mph7.2 kmh 29.76 in1007.8 mb 0.00 in0.0 mm 0.00 in0.0 mm 0.00 in0.0 mm
12:10 AM 74.5°F23.6°C 58.3°F14.6°C 57% 1.6 mph S2.6 kmh S 2.2 mph3.5 kmh 29.76 in1007.8 mb 0.00 in0.0 mm 0.00 in0.0 mm 0.00 in0.0 mm
12:15 AM 73.9°F23.3°C 58.8°F14.9°C 59% 2.5 mph S4.0 kmh S 3.4 mph5.5 kmh 29.76 in1007.8 mb 0.00 in0.0 mm 0.00 in0.0 mm 0.00 in0.0 mm
12:20 AM 73.6°F23.1°C 58.5°F14.7°C 59% 0.9 mph S1.4 kmh S 1.1 mph1.8 kmh 29.76 in1007.8 mb 0.00 in0.0 mm 0.00 in0.0 mm 0.00 in0.0 mm
12:25 AM 73.0°F22.8°C 58.5°F14.7°C 60% 1.3 mph S2.1 kmh S 2.2 mph3.5 kmh 29.75 in1007.5 mb 0.00 in0.0 mm 0.00 in0.0 mm 0.00 in0.0 mm
12:30 AM 72.7°F22.6°C 58.5°F14.7°C 61% 2.9 mph S4.7 kmh S 4.5 mph7.2 kmh 29.76 in1007.8 mb 0.00 in0.0 mm 0.00 in0.0 mm 0.00 in0.0 mm
12:35 AM 72.1°F22.3°C 58.5°F14.7°C 62% 0.7 mph SSE1.1 kmh SSE 1.1 mph1.8 kmh 29.75 in1007.5 mb 0.00 in0.0 mm 0.00 in0.0 mm 0.00 in0.0 mm
12:40 AM 71.8°F22.1°C 58.5°F14.7°C 63% 0.4 mph S0.6 kmh S 1.1 mph1.8 kmh 29.76 in1007.8 mb 0.00 in0.0 mm 0.00 in0.0 mm 0.00 in0.0 mm
12:45 AM 71.4°F21.9°C 58.6°F14.8°C 64% Calm Calm -- 29.75 in1007.5 mb 0.00 in0.0 mm 0.00 in0.0 mm 0.00 in0.0 mm
12:50 AM 70.9°F21.6°C 58.6°F14.8°C 65% 0.7 mph S1.1 kmh S 1.1 mph1.8 kmh 29.76 in1007.8 mb 0.00 in0.0 mm 0.00 in0.0 mm 0.00 in0.0 mm
12:55 AM 70.7°F21.5°C 58.5°F14.7°C 65% 1.3 mph SE2.1 kmh SE 2.2 mph3.5 kmh 29.76 in1007.8 mb 0.00 in0.0 mm 0.00 in0.0 mm 0.00 in0.0 mm
01:00 AM 70.3°F21.3°C 58.5°F14.7°C 66% 1.8 mph ESE2.9 kmh ESE 2.2 mph3.5 kmh 29.76 in1007.8 mb 0.00 in0.0 mm 0.00 in0.0 mm 0.00 in0.0 mm
01:05 AM 70.2°F21.2°C 58.3°F14.6°C 66% 1.3 mph SSE2.1 kmh SSE 2.2 mph3.5 kmh 29.75 in1007.5 mb 0.00 in0.0 mm 0.00 in0.0 mm 0.00 in0.0 mm
01:10 AM 70.0°F21.1°C 58.5°F14.7°C 67% 2.5 mph ESE4.0 kmh ESE 3.4 mph5.5 kmh 29.75 in1007.5 mb 0.00 in0.0 mm 0.00 in0.0 mm 0.00 in0.0 mm
01:15 AM 69.8°F21.0°C 58.3°F14.6°C 67% 1.8 mph S2.9 kmh S 3.4 mph5.5 kmh 29.76 in1007.8 mb 0.00 in0.0 mm 0.00 in0.0 mm 0.00 in0.0 mm
01:20 AM 69.4°F20.8°C 58.5°F14.7°C 68% Calm Calm -- 29.76 in1007.8 mb 0.00 in0.0 mm 0.00 in0.0 mm 0.00 in0.0 mm
01:25 AM 69.4°F20.8°C 58.8°F14.9°C 69% 0.4 mph S0.6 kmh S 1.1 mph1.8 kmh 29.76 in1007.8 mb 0.00 in0.0 mm 0.00 in0.0 mm 0.00 in0.0 mm
01:30 AM 69.3°F20.7°C 58.6°F14.8°C 69% Calm Calm -- 29.76 in1007.8 mb 0.00 in0.0 mm 0.00 in0.0 mm 0.00 in0.0 mm
01:35 AM 68.9°F20.5°C 58.8°F14.9°C 70% 0.2 mph SSW0.3 kmh SSW 1.1 mph1.8 kmh 29.76 in1007.8 mb 0.00 in0.0 mm 0.00 in0.0 mm 0.00 in0.0 mm
01:40 AM 68.5°F20.3°C 58.8°F14.9°C 71% 2.0 mph S3.2 kmh S 3.4 mph5.5 kmh 29.76 in1007.8 mb 0.00 in0.0 mm 0.00 in0.0 mm 0.00 in0.0 mm
01:45 AM 67.8°F19.9°C 58.8°F14.9°C 73% 2.2 mph SW3.5 kmh SW 2.2 mph3.5 kmh 29.76 in1007.8 mb 0.00 in0.0 mm 0.00 in0.0 mm 0.00 in0.0 mm
01:50 AM 67.5°F19.7°C 59.0°F15.0°C 74% 0.2 mph S0.3 kmh S 1.1 mph1.8 kmh 29.76 in1007.8 mb 0.00 in0.0 mm 0.00 in0.0 mm 0.00 in0.0 mm
01:55 AM 67.3°F19.6°C 58.8°F14.9°C 74% Calm Calm -- 29.76 in1007.8 mb 0.00 in0.0 mm 0.00 in0.0 mm 0.00 in0.0 mm
02:00 AM 66.7°F19.3°C 58.6°F14.8°C 75% Calm Calm -- 29.76 in1007.8 mb 0.00 in0.0 mm 0.00 in0.0 mm 0.00 in0.0 mm
02:05 AM 66.6°F19.2°C 58.5°F14.7°C 75% Calm Calm -- 29.77 in1008.1 mb 0.00 in0.0 mm 0.00 in0.0 mm 0.00 in0.0 mm
02:10 AM 66.6°F19.2°C 58.8°F14.9°C 76% 0.4 mph SSW0.6 kmh SSW 1.1 mph1.8 kmh 29.76 in1007.8 mb 0.00 in0.0 mm 0.00 in0.0 mm 0.00 in0.0 mm
02:15 AM 66.4°F19.1°C 58.6°F14.8°C 76% Calm Calm -- 29.76 in1007.8 mb 0.00 in0.0 mm 0.00 in0.0 mm 0.00 in0.0 mm
02:20 AM 65.5°F18.6°C 58.5°F14.7°C 78% Calm Calm -- 29.76 in1007.8 mb 0.00 in0.0 mm 0.00 in0.0 mm 0.00 in0.0 mm
02:25 AM 65.1°F18.4°C 58.5°F14.7°C 79% Calm Calm -- 29.76 in1007.8 mb 0.00 in0.0 mm 0.00 in0.0 mm 0.00 in0.0 mm
02:30 AM 64.6°F18.1°C 58.3°F14.6°C 80% Calm Calm -- 29.76 in1007.8 mb 0.00 in0.0 mm 0.00 in0.0 mm 0.00 in0.0 mm
02:35 AM 64.2°F17.9°C 58.3°F14.6°C 81% Calm Calm -- 29.76 in1007.8 mb 0.00 in0.0 mm 0.00 in0.0 mm 0.00 in0.0 mm
02:40 AM 63.9°F17.7°C 58.3°F14.6°C 82% Calm Calm -- 29.75 in1007.5 mb 0.00 in0.0 mm 0.00 in0.0 mm 0.00 in0.0 mm
02:45 AM 63.5°F17.5°C 58.6°F14.8°C 84% Calm Calm -- 29.75 in1007.5 mb 0.00 in0.0 mm 0.00 in0.0 mm 0.00 in0.0 mm
02:50 AM 63.3°F17.4°C 58.1°F14.5°C 83% Calm Calm -- 29.76 in1007.8 mb 0.00 in0.0 mm 0.00 in0.0 mm 0.00 in0.0 mm
02:55 AM 63.3°F17.4°C 58.1°F14.5°C 83% Calm Calm -- 29.76 in1007.8 mb 0.00 in0.0 mm 0.00 in0.0 mm 0.00 in0.0 mm
03:00 AM 63.1°F17.3°C 58.3°F14.6°C 84% Calm Calm -- 29.76 in1007.8 mb 0.00 in0.0 mm 0.00 in0.0 mm 0.00 in0.0 mm
03:05 AM 63.3°F17.4°C 58.5°F14.7°C 84% Calm Calm -- 29.76 in1007.8 mb 0.00 in0.0 mm 0.00 in0.0 mm 0.00 in0.0 mm
03:10 AM 63.1°F17.3°C 58.6°F14.8°C 85% Calm Calm -- 29.75 in1007.5 mb 0.00 in0.0 mm 0.00 in0.0 mm 0.00 in0.0 mm
03:15 AM 63.1°F17.3°C 58.6°F14.8°C 85% Calm Calm -- 29.75 in1007.5 mb 0.00 in0.0 mm 0.00 in0.0 mm 0.00 in0.0 mm
03:20 AM 63.1°F17.3°C 59.0°F15.0°C 86% 1.1 mph SW1.8 kmh SW 1.1 mph1.8 kmh 29.76 in1007.8 mb 0.00 in0.0 mm 0.00 in0.0 mm 0.00 in0.0 mm
03:25 AM 63.1°F17.3°C 58.6°F14.8°C 85% 0.2 mph SSW0.3 kmh SSW 1.1 mph1.8 kmh 29.76 in1007.8 mb 0.00 in0.0 mm 0.00 in0.0 mm 0.00 in0.0 mm
03:30 AM 62.8°F17.1°C 58.6°F14.8°C 86% Calm Calm -- 29.76 in1007.8 mb 0.00 in0.0 mm 0.00 in0.0 mm 0.00 in0.0 mm
03:35 AM 62.4°F16.9°C 58.6°F14.8°C 87% Calm Calm -- 29.76 in1007.8 mb 0.00 in0.0 mm 0.00 in0.0 mm 0.00 in0.0 mm
03:40 AM 62.2°F16.8°C 58.5°F14.7°C 87% Calm Calm -- 29.76 in1007.8 mb 0.00 in0.0 mm 0.00 in0.0 mm 0.00 in0.0 mm
03:45 AM 61.9°F16.6°C 58.3°F14.6°C 88% Calm Calm -- 29.76 in1007.8 mb 0.00 in0.0 mm 0.00 in0.0 mm 0.00 in0.0 mm
03:50 AM 61.5°F16.4°C 57.9°F14.4°C 88% Calm Calm -- 29.76 in1007.8 mb 0.00 in0.0 mm 0.00 in0.0 mm 0.00 in0.0 mm
03:55 AM 61.2°F16.2°C 57.9°F14.4°C 89% Calm Calm -- 29.76 in1007.8 mb 0.00 in0.0 mm 0.00 in0.0 mm 0.00 in0.0 mm
04:00 AM 60.8°F16.0°C 57.6°F14.2°C 89% Calm Calm -- 29.76 in1007.8 mb 0.00 in0.0 mm 0.00 in0.0 mm 0.00 in0.0 mm
04:05 AM 61.0°F16.1°C 58.1°F14.5°C 90% Calm Calm -- 29.76 in1007.8 mb 0.00 in0.0 mm 0.00 in0.0 mm 0.00 in0.0 mm
04:10 AM 61.0°F16.1°C 58.1°F14.5°C 90% Calm Calm -- 29.76 in1007.8 mb 0.00 in0.0 mm 0.00 in0.0 mm 0.00 in0.0 mm
04:15 AM 60.8°F16.0°C 57.9°F14.4°C 90% Calm Calm -- 29.76 in1007.8 mb 0.00 in0.0 mm 0.00 in0.0 mm 0.00 in0.0 mm
04:20 AM 60.6°F15.9°C 58.1°F14.5°C 91% Calm Calm -- 29.76 in1007.8 mb 0.00 in0.0 mm 0.00 in0.0 mm 0.00 in0.0 mm
04:25 AM 60.4°F15.8°C 57.9°F14.4°C 91% Calm Calm -- 29.76 in1007.8 mb 0.00 in0.0 mm 0.00 in0.0 mm 0.00 in0.0 mm
04:30 AM 60.4°F15.8°C 57.9°F14.4°C 91% Calm Calm -- 29.76 in1007.8 mb 0.00 in0.0 mm 0.00 in0.0 mm 0.00 in0.0 mm
04:35 AM 60.4°F15.8°C 57.9°F14.4°C 91% Calm Calm -- 29.76 in1007.8 mb 0.00 in0.0 mm 0.00 in0.0 mm 0.00 in0.0 mm
04:40 AM 60.8°F16.0°C 58.3°F14.6°C 91% Calm Calm -- 29.76 in1007.8 mb 0.00 in0.0 mm 0.00 in0.0 mm 0.00 in0.0 mm
04:45 AM 61.0°F16.1°C 58.1°F14.5°C 90% Calm Calm -- 29.77 in1008.1 mb 0.00 in0.0 mm 0.00 in0.0 mm 0.00 in0.0 mm
04:50 AM 60.8°F16.0°C 57.9°F14.4°C 90% Calm Calm -- 29.77 in1008.1 mb 0.00 in0.0 mm 0.00 in0.0 mm 0.00 in0.0 mm
04:55 AM 61.0°F16.1°C 58.1°F14.5°C 90% Calm Calm -- 29.77 in1008.1 mb 0.00 in0.0 mm 0.00 in0.0 mm 0.00 in0.0 mm
05:00 AM 61.2°F16.2°C 58.3°F14.6°C 90% Calm Calm -- 29.77 in1008.1 mb 0.00 in0.0 mm 0.00 in0.0 mm 0.00 in0.0 mm
05:05 AM 61.2°F16.2°C 58.3°F14.6°C 90% Calm Calm -- 29.77 in1008.1 mb 0.00 in0.0 mm 0.00 in0.0 mm 0.00 in0.0 mm
05:10 AM 61.0°F16.1°C 58.1°F14.5°C 90% Calm Calm -- 29.77 in1008.1 mb 0.00 in0.0 mm 0.00 in0.0 mm 0.00 in0.0 mm
05:15 AM 60.6°F15.9°C 57.7°F14.3°C 90% Calm Calm -- 29.77 in1008.1 mb 0.00 in0.0 mm 0.00 in0.0 mm 0.00 in0.0 mm
05:20 AM 60.1°F15.6°C 57.2°F14.0°C 90% Calm Calm -- 29.77 in1008.1 mb 0.00 in0.0 mm 0.00 in0.0 mm 0.00 in0.0 mm
05:25 AM 60.1°F15.6°C 57.6°F14.2°C 91% Calm Calm -- 29.76 in1007.8 mb 0.00 in0.0 mm 0.00 in0.0 mm 0.00 in0.0 mm
05:30 AM 59.7°F15.4°C 57.4°F14.1°C 92% Calm Calm -- 29.77 in1008.1 mb 0.00 in0.0 mm 0.00 in0.0 mm 0.00 in0.0 mm
05:35 AM 60.1°F15.6°C 57.7°F14.3°C 92% Calm Calm -- 29.77 in1008.1 mb 0.00 in0.0 mm 0.00 in0.0 mm 0.00 in0.0 mm
05:40 AM 60.4°F15.8°C 58.1°F14.5°C 92% Calm Calm -- 29.77 in1008.1 mb 0.00 in0.0 mm 0.00 in0.0 mm 0.00 in0.0 mm
05:45 AM 60.6°F15.9°C 58.1°F14.5°C 91% Calm Calm -- 29.77 in1008.1 mb 0.00 in0.0 mm 0.00 in0.0 mm 0.00 in0.0 mm
05:50 AM 60.6°F15.9°C 58.3°F14.6°C 92% Calm Calm -- 29.78 in1008.5 mb 0.00 in0.0 mm 0.00 in0.0 mm 0.00 in0.0 mm
05:55 AM 60.4°F15.8°C 58.1°F14.5°C 92% Calm Calm -- 29.77 in1008.1 mb 0.00 in0.0 mm 0.00 in0.0 mm 0.00 in0.0 mm
06:00 AM 60.3°F15.7°C 57.9°F14.4°C 92% Calm Calm -- 29.78 in1008.5 mb 0.00 in0.0 mm 0.00 in0.0 mm 0.00 in0.0 mm
06:05 AM 60.1°F15.6°C 57.6°F14.2°C 91% Calm Calm -- 29.78 in1008.5 mb 0.00 in0.0 mm 0.00 in0.0 mm 0.00 in0.0 mm
06:10 AM 60.1°F15.6°C 57.6°F14.2°C 91% Calm Calm -- 29.78 in1008.5 mb 0.00 in0.0 mm 0.00 in0.0 mm 0.00 in0.0 mm
06:15 AM 59.9°F15.5°C 57.6°F14.2°C 92% Calm Calm -- 29.78 in1008.5 mb 0.00 in0.0 mm 0.00 in0.0 mm 0.00 in0.0 mm
06:20 AM 59.9°F15.5°C 57.6°F14.2°C 92% Calm Calm -- 29.78 in1008.5 mb 0.00 in0.0 mm 0.00 in0.0 mm 0.00 in0.0 mm
06:25 AM 59.5°F15.3°C 57.2°F14.0°C 92% Calm Calm -- 29.78 in1008.5 mb 0.00 in0.0 mm 0.00 in0.0 mm 0.00 in0.0 mm
06:30 AM 59.4°F15.2°C 57.0°F13.9°C 92% Calm Calm -- 29.78 in1008.5 mb 0.00 in0.0 mm 0.00 in0.0 mm 0.00 in0.0 mm
06:35 AM 59.5°F15.3°C 57.4°F14.1°C 93% Calm Calm -- 29.78 in1008.5 mb 0.00 in0.0 mm 0.00 in0.0 mm 0.00 in0.0 mm
06:40 AM 59.9°F15.5°C 57.7°F14.3°C 93% Calm Calm -- 29.78 in1008.5 mb 0.00 in0.0 mm 0.00 in0.0 mm 0.00 in0.0 mm
06:45 AM 60.4°F15.8°C 58.3°F14.6°C 93% Calm Calm -- 29.78 in1008.5 mb 0.00 in0.0 mm 0.00 in0.0 mm 0.00 in0.0 mm
06:50 AM 60.8°F16.0°C 58.5°F14.7°C 92% Calm Calm -- 29.78 in1008.5 mb 0.00 in0.0 mm 0.00 in0.0 mm 0.00 in0.0 mm
06:55 AM 61.3°F16.3°C 59.0°F15.0°C 92% Calm Calm -- 29.78 in1008.5 mb 0.00 in0.0 mm 0.00 in0.0 mm 0.00 in0.0 mm
07:00 AM 61.5°F16.4°C 59.0°F15.0°C 91% Calm Calm -- 29.79 in1008.8 mb 0.00 in0.0 mm 0.00 in0.0 mm 0.00 in0.0 mm
07:05 AM 61.5°F16.4°C 58.6°F14.8°C 90% Calm Calm -- 29.79 in1008.8 mb 0.00 in0.0 mm 0.00 in0.0 mm 0.00 in0.0 mm
07:10 AM 61.5°F16.4°C 58.6°F14.8°C 90% Calm Calm -- 29.78 in1008.5 mb 0.00 in0.0 mm 0.00 in0.0 mm 0.00 in0.0 mm
07:15 AM 62.1°F16.7°C 59.0°F15.0°C 90% Calm Calm -- 29.79 in1008.8 mb 0.00 in0.0 mm 0.00 in0.0 mm 0.00 in0.0 mm
07:20 AM 62.2°F16.8°C 59.0°F15.0°C 89% Calm Calm -- 29.78 in1008.5 mb 0.00 in0.0 mm 0.00 in0.0 mm 0.00 in0.0 mm
07:25 AM 62.8°F17.1°C 58.6°F14.8°C 86% 0.2 mph SSW0.3 kmh SSW 1.1 mph1.8 kmh 29.80 in1009.1 mb 0.00 in0.0 mm 0.00 in0.0 mm 0.00 in0.0 mm
07:30 AM 63.7°F17.6°C 57.7°F14.3°C 81% 0.7 mph SW1.1 kmh SW 1.1 mph1.8 kmh 29.79 in1008.8 mb 0.00 in0.0 mm 0.00 in0.0 mm 0.00 in0.0 mm
07:35 AM 63.9°F17.7°C 57.6°F14.2°C 80% 0.2 mph S0.3 kmh S 1.1 mph1.8 kmh 29.79 in1008.8 mb 0.00 in0.0 mm 0.00 in0.0 mm 0.00 in0.0 mm
07:40 AM 63.3°F17.4°C 57.4°F14.1°C 81% 1.3 mph S2.1 kmh S 2.2 mph3.5 kmh 29.79 in1008.8 mb 0.00 in0.0 mm 0.00 in0.0 mm 0.00 in0.0 mm
07:45 AM 63.3°F17.4°C 57.4°F14.1°C 81% 0.4 mph S0.6 kmh S 1.1 mph1.8 kmh 29.80 in1009.1 mb 0.00 in0.0 mm 0.00 in0.0 mm 0.00 in0.0 mm
07:50 AM 64.2°F17.9°C 57.9°F14.4°C 80% 1.8 mph SW2.9 kmh SW 2.2 mph3.5 kmh 29.79 in1008.8 mb 0.00 in0.0 mm 0.00 in0.0 mm 0.00 in0.0 mm
07:55 AM 65.3°F18.5°C 57.9°F14.4°C 77% Calm Calm -- 29.79 in1008.8 mb 0.00 in0.0 mm 0.00 in0.0 mm 0.00 in0.0 mm
08:00 AM 65.7°F18.7°C 58.6°F14.8°C 78% Calm Calm -- 29.80 in1009.1 mb 0.00 in0.0 mm 0.00 in0.0 mm 0.00 in0.0 mm
08:05 AM 66.2°F19.0°C 58.5°F14.7°C 76% Calm Calm -- 29.79 in1008.8 mb 0.00 in0.0 mm 0.00 in0.0 mm 0.00 in0.0 mm
08:10 AM 66.0°F18.9°C 58.6°F14.8°C 77% 1.3 mph W2.1 kmh W 2.2 mph3.5 kmh 29.81 in1009.5 mb 0.00 in0.0 mm 0.00 in0.0 mm 0.00 in0.0 mm
08:15 AM 66.7°F19.3°C 59.0°F15.0°C 76% 1.1 mph SW1.8 kmh SW 1.1 mph1.8 kmh 29.79 in1008.8 mb 0.00 in0.0 mm 0.00 in0.0 mm 0.00 in0.0 mm
08:20 AM 67.3°F19.6°C 59.5°F15.3°C 76% 1.1 mph SW1.8 kmh SW 2.2 mph3.5 kmh 29.80 in1009.1 mb 0.00 in0.0 mm 0.00 in0.0 mm 0.00 in0.0 mm
08:25 AM 68.0°F20.0°C 59.9°F15.5°C 75% Calm Calm -- 29.79 in1008.8 mb 0.00 in0.0 mm 0.00 in0.0 mm 0.00 in0.0 mm
08:30 AM 68.5°F20.3°C 59.9°F15.5°C 74% 1.3 mph WSW2.1 kmh WSW 2.2 mph3.5 kmh 29.80 in1009.1 mb 0.00 in0.0 mm 0.00 in0.0 mm 0.00 in0.0 mm
08:35 AM 68.7°F20.4°C 60.1°F15.6°C 74% 0.9 mph SSW1.4 kmh SSW 1.1 mph1.8 kmh 29.80 in1009.1 mb 0.00 in0.0 mm 0.00 in0.0 mm 0.00 in0.0 mm
08:40 AM 68.7°F20.4°C 60.4°F15.8°C 75% 1.3 mph SE2.1 kmh SE 2.2 mph3.5 kmh 29.80 in1009.1 mb 0.00 in0.0 mm 0.00 in0.0 mm 0.00 in0.0 mm
08:45 AM 68.7°F20.4°C 60.4°F15.8°C 75% Calm Calm -- 29.81 in1009.5 mb 0.00 in0.0 mm 0.00 in0.0 mm 0.00 in0.0 mm
08:50 AM 69.8°F21.0°C 60.4°F15.8°C 72% 0.2 mph S0.3 kmh S 1.1 mph1.8 kmh 29.81 in1009.5 mb 0.00 in0.0 mm 0.00 in0.0 mm 0.00 in0.0 mm
08:55 AM 70.2°F21.2°C 60.6°F15.9°C 72% 1.3 mph S2.1 kmh S 2.2 mph3.5 kmh 29.80 in1009.1 mb 0.00 in0.0 mm 0.00 in0.0 mm 0.00 in0.0 mm
09:00 AM 71.2°F21.8°C 61.0°F16.1°C 70% 1.3 mph S2.1 kmh S 2.2 mph3.5 kmh 29.81 in1009.5 mb 0.00 in0.0 mm 0.00 in0.0 mm 0.00 in0.0 mm
09:05 AM 72.7°F22.6°C 61.9°F16.6°C 69% 1.3 mph NE2.1 kmh NE 2.2 mph3.5 kmh 29.80 in1009.1 mb 0.00 in0.0 mm 0.00 in0.0 mm 0.00 in0.0 mm
09:10 AM 72.7°F22.6°C 61.5°F16.4°C 68% Calm Calm -- 29.80 in1009.1 mb 0.00 in0.0 mm 0.00 in0.0 mm 0.00 in0.0 mm
09:15 AM 73.9°F23.3°C 62.2°F16.8°C 67% Calm Calm -- 29.80 in1009.1 mb 0.00 in0.0 mm 0.00 in0.0 mm 0.00 in0.0 mm
09:20 AM 75.7°F24.3°C 63.1°F17.3°C 65% Calm Calm -- 29.80 in1009.1 mb 0.00 in0.0 mm 0.00 in0.0 mm 0.00 in0.0 mm
09:25 AM 75.4°F24.1°C 62.8°F17.1°C 65% 2.9 mph SW4.7 kmh SW 3.4 mph5.5 kmh 29.80 in1009.1 mb 0.00 in0.0 mm 0.00 in0.0 mm 0.00 in0.0 mm
09:30 AM 75.4°F24.1°C 62.4°F16.9°C 64% 2.0 mph S3.2 kmh S 2.2 mph3.5 kmh 29.81 in1009.5 mb 0.00 in0.0 mm 0.00 in0.0 mm 0.00 in0.0 mm
09:35 AM 75.0°F23.9°C 62.4°F16.9°C 65% 0.2 mph S0.3 kmh S 1.1 mph1.8 kmh 29.81 in1009.5 mb 0.00 in0.0 mm 0.00 in0.0 mm 0.00 in0.0 mm
09:40 AM 76.1°F24.5°C 63.1°F17.3°C 64% 0.2 mph SSE0.3 kmh SSE 1.1 mph1.8 kmh 29.80 in1009.1 mb 0.00 in0.0 mm 0.00 in0.0 mm 0.00 in0.0 mm
09:45 AM 76.6°F24.8°C 62.2°F16.8°C 61% 1.1 mph S1.8 kmh S 1.1 mph1.8 kmh 29.81 in1009.5 mb 0.00 in0.0 mm 0.00 in0.0 mm 0.00 in0.0 mm
09:50 AM 77.7°F25.4°C 63.7°F17.6°C 62% 0.2 mph SE0.3 kmh SE 1.1 mph1.8 kmh 29.81 in1009.5 mb 0.00 in0.0 mm 0.00 in0.0 mm 0.00 in0.0 mm
09:55 AM 79.2°F26.2°C 64.6°F18.1°C 61% 0.2 mph S0.3 kmh S 1.1 mph1.8 kmh 29.81 in1009.5 mb 0.00 in0.0 mm 0.00 in0.0 mm 0.00 in0.0 mm
10:00 AM 79.9°F26.6°C 64.4°F18.0°C 59% Calm Calm -- 29.80 in1009.1 mb 0.00 in0.0 mm 0.00 in0.0 mm 0.00 in0.0 mm
10:05 AM 80.6°F27.0°C 64.0°F17.8°C 57% 1.8 mph S2.9 kmh S 2.2 mph3.5 kmh 29.81 in1009.5 mb 0.00 in0.0 mm 0.00 in0.0 mm 0.00 in0.0 mm
10:10 AM 80.8°F27.1°C 63.7°F17.6°C 56% 3.6 mph S5.8 kmh S 4.5 mph7.2 kmh 29.81 in1009.5 mb 0.00 in0.0 mm 0.00 in0.0 mm 0.00 in0.0 mm
10:15 AM 80.2°F26.8°C 63.1°F17.3°C 56% 0.7 mph S1.1 kmh S 1.1 mph1.8 kmh 29.81 in1009.5 mb 0.00 in0.0 mm 0.00 in0.0 mm 0.00 in0.0 mm
10:20 AM 81.0°F27.2°C 63.9°F17.7°C 56% 1.3 mph WSW2.1 kmh WSW 2.2 mph3.5 kmh 29.81 in1009.5 mb 0.00 in0.0 mm 0.00 in0.0 mm 0.00 in0.0 mm
10:25 AM 81.5°F27.5°C 63.9°F17.7°C 55% 0.7 mph WNW1.1 kmh WNW 1.1 mph1.8 kmh 29.80 in1009.1 mb 0.00 in0.0 mm 0.00 in0.0 mm 0.00 in0.0 mm
10:30 AM 81.3°F27.4°C 63.1°F17.3°C 54% 1.8 mph S2.9 kmh S 2.2 mph3.5 kmh 29.81 in1009.5 mb 0.00 in0.0 mm 0.00 in0.0 mm 0.00 in0.0 mm
10:35 AM 82.6°F28.1°C 64.8°F18.2°C 55% 0.9 mph S1.4 kmh S 1.1 mph1.8 kmh 29.81 in1009.5 mb 0.00 in0.0 mm 0.00 in0.0 mm 0.00 in0.0 mm
10:40 AM 82.9°F28.3°C 64.0°F17.8°C 53% 0.2 mph S0.3 kmh S 1.1 mph1.8 kmh 29.81 in1009.5 mb 0.00 in0.0 mm 0.00 in0.0 mm 0.00 in0.0 mm
10:45 AM 84.0°F28.9°C 63.5°F17.5°C 50% Calm Calm -- 29.80 in1009.1 mb 0.00 in0.0 mm 0.00 in0.0 mm 0.00 in0.0 mm
10:50 AM 82.9°F28.3°C 63.5°F17.5°C 52% 0.2 mph WSW0.3 kmh WSW 1.1 mph1.8 kmh 29.81 in1009.5 mb 0.00 in0.0 mm 0.00 in0.0 mm 0.00 in0.0 mm
10:55 AM 83.7°F28.7°C 64.2°F17.9°C 52% Calm Calm -- 29.80 in1009.1 mb 0.00 in0.0 mm 0.00 in0.0 mm 0.00 in0.0 mm
11:00 AM 83.8°F28.8°C 64.4°F18.0°C 52% 2.0 mph SSW3.2 kmh SSW 2.2 mph3.5 kmh 29.80 in1009.1 mb 0.00 in0.0 mm 0.00 in0.0 mm 0.00 in0.0 mm
11:05 AM 84.9°F29.4°C 61.3°F16.3°C 45% 2.2 mph SW3.5 kmh SW 2.2 mph3.5 kmh 29.81 in1009.5 mb 0.00 in0.0 mm 0.00 in0.0 mm 0.00 in0.0 mm
11:10 AM 83.7°F28.7°C 65.3°F18.5°C 54% 0.7 mph WSW1.1 kmh WSW 1.1 mph1.8 kmh 29.81 in1009.5 mb 0.00 in0.0 mm 0.00 in0.0 mm 0.00 in0.0 mm
11:15 AM 84.9°F29.4°C 63.7°F17.6°C 49% Calm Calm -- 29.81 in1009.5 mb 0.00 in0.0 mm 0.00 in0.0 mm 0.00 in0.0 mm
11:20 AM 86.2°F30.1°C 63.0°F17.2°C 46% 0.4 mph SSW0.6 kmh SSW 1.1 mph1.8 kmh 29.80 in1009.1 mb 0.00 in0.0 mm 0.00 in0.0 mm 0.00 in0.0 mm
11:25 AM 87.1°F30.6°C 61.3°F16.3°C 42% 0.7 mph SSW1.1 kmh SSW 1.1 mph1.8 kmh 29.81 in1009.5 mb 0.00 in0.0 mm 0.00 in0.0 mm 0.00 in0.0 mm
11:30 AM 88.3°F31.3°C 61.7°F16.5°C 41% 0.9 mph S1.4 kmh S 1.1 mph1.8 kmh 29.80 in1009.1 mb 0.00 in0.0 mm 0.00 in0.0 mm 0.00 in0.0 mm
11:35 AM 87.6°F30.9°C 61.2°F16.2°C 41% 2.5 mph WNW4.0 kmh WNW 3.4 mph5.5 kmh 29.81 in1009.5 mb 0.00 in0.0 mm 0.00 in0.0 mm 0.00 in0.0 mm
11:40 AM 88.0°F31.1°C 63.5°F17.5°C 44% 0.9 mph SW1.4 kmh SW 1.1 mph1.8 kmh 29.80 in1009.1 mb 0.00 in0.0 mm 0.00 in0.0 mm 0.00 in0.0 mm
11:45 AM 88.7°F31.5°C 62.1°F16.7°C 41% 1.8 mph SSW2.9 kmh SSW 2.2 mph3.5 kmh 29.80 in1009.1 mb 0.00 in0.0 mm 0.00 in0.0 mm 0.00 in0.0 mm
11:50 AM 89.4°F31.9°C 62.1°F16.7°C 40% 0.4 mph S0.6 kmh S 1.1 mph1.8 kmh 29.80 in1009.1 mb 0.00 in0.0 mm 0.00 in0.0 mm 0.00 in0.0 mm
11:55 AM 87.6°F30.9°C 61.2°F16.2°C 41% 0.7 mph SSW1.1 kmh SSW 1.1 mph1.8 kmh 29.81 in1009.5 mb 0.00 in0.0 mm 0.00 in0.0 mm 0.00 in0.0 mm
12:00 PM 86.7°F30.4°C 63.0°F17.2°C 45% 0.2 mph SSW0.3 kmh SSW 1.1 mph1.8 kmh 29.81 in1009.5 mb 0.00 in0.0 mm 0.00 in0.0 mm 0.00 in0.0 mm
12:05 PM 87.4°F30.8°C 61.7°F16.5°C 42% 0.2 mph S0.3 kmh S 1.1 mph1.8 kmh 29.81 in1009.5 mb 0.00 in0.0 mm 0.00 in0.0 mm 0.00 in0.0 mm
12:10 PM 91.4°F33.0°C 62.2°F16.8°C 38% 0.9 mph SSE1.4 kmh SSE 1.1 mph1.8 kmh 29.80 in1009.1 mb 0.00 in0.0 mm 0.00 in0.0 mm 0.00 in0.0 mm
12:15 PM 93.0°F33.9°C 58.8°F14.9°C 32% 1.3 mph SW2.1 kmh SW 2.2 mph3.5 kmh 29.79 in1008.8 mb 0.00 in0.0 mm 0.00 in0.0 mm 0.00 in0.0 mm
12:20 PM 92.5°F33.6°C 61.0°F16.1°C 35% 0.4 mph S0.6 kmh S 1.1 mph1.8 kmh 29.80 in1009.1 mb 0.00 in0.0 mm 0.00 in0.0 mm 0.00 in0.0 mm
12:25 PM 92.5°F33.6°C 61.7°F16.5°C 36% 1.3 mph SW2.1 kmh SW 2.2 mph3.5 kmh 29.80 in1009.1 mb 0.00 in0.0 mm 0.00 in0.0 mm 0.00 in0.0 mm
12:30 PM 91.2°F32.9°C 63.7°F17.6°C 40% Calm Calm -- 29.80 in1009.1 mb 0.00 in0.0 mm 0.00 in0.0 mm 0.00 in0.0 mm
12:35 PM 90.1°F32.3°C 61.2°F16.2°C 38% 0.4 mph SSW0.6 kmh SSW 1.1 mph1.8 kmh 29.80 in1009.1 mb 0.00 in0.0 mm 0.00 in0.0 mm 0.00 in0.0 mm
12:40 PM 90.1°F32.3°C 61.9°F16.6°C 39% 0.9 mph SSW1.4 kmh SSW 1.1 mph1.8 kmh 29.79 in1008.8 mb 0.00 in0.0 mm 0.00 in0.0 mm 0.00 in0.0 mm
12:45 PM 90.5°F32.5°C 56.7°F13.7°C 32% 2.5 mph SSW4.0 kmh SSW 3.4 mph5.5 kmh 29.79 in1008.8 mb 0.00 in0.0 mm 0.00 in0.0 mm 0.00 in0.0 mm
12:50 PM 91.0°F32.8°C 60.4°F15.8°C 36% Calm Calm -- 29.79 in1008.8 mb 0.00 in0.0 mm 0.00 in0.0 mm 0.00 in0.0 mm
12:55 PM 91.6°F33.1°C 60.1°F15.6°C 35% 0.2 mph SSW0.3 kmh SSW 1.1 mph1.8 kmh 29.79 in1008.8 mb 0.00 in0.0 mm 0.00 in0.0 mm 0.00 in0.0 mm
01:00 PM 92.1°F33.4°C 59.7°F15.4°C 34% 1.6 mph SW2.6 kmh SW 2.2 mph3.5 kmh 29.78 in1008.5 mb 0.00 in0.0 mm 0.00 in0.0 mm 0.00 in0.0 mm
01:05 PM 93.0°F33.9°C 59.7°F15.4°C 33% Calm Calm -- 29.78 in1008.5 mb 0.00 in0.0 mm 0.00 in0.0 mm 0.00 in0.0 mm
01:10 PM 93.2°F34.0°C 57.2°F14.0°C 30% 1.1 mph WSW1.8 kmh WSW 2.2 mph3.5 kmh 29.78 in1008.5 mb 0.00 in0.0 mm 0.00 in0.0 mm 0.00 in0.0 mm
01:15 PM 92.5°F33.6°C 55.8°F13.2°C 29% 0.9 mph SSW1.4 kmh SSW 1.1 mph1.8 kmh 29.78 in1008.5 mb 0.00 in0.0 mm 0.00 in0.0 mm 0.00 in0.0 mm
01:20 PM 92.8°F33.8°C 62.8°F17.1°C 37% 0.2 mph SSW0.3 kmh SSW 1.1 mph1.8 kmh 29.78 in1008.5 mb 0.00 in0.0 mm 0.00 in0.0 mm 0.00 in0.0 mm
01:25 PM 94.1°F34.5°C 54.1°F12.3°C 26% 2.2 mph SW3.5 kmh SW 2.2 mph3.5 kmh 29.77 in1008.1 mb 0.00 in0.0 mm 0.00 in0.0 mm 0.00 in0.0 mm
01:30 PM 94.5°F34.7°C 59.2°F15.1°C 31% 0.4 mph S0.6 kmh S 1.1 mph1.8 kmh 29.78 in1008.5 mb 0.00 in0.0 mm 0.00 in0.0 mm 0.00 in0.0 mm
01:35 PM 97.0°F36.1°C 57.6°F14.2°C 27% 2.0 mph S3.2 kmh S 3.4 mph5.5 kmh 29.78 in1008.5 mb 0.00 in0.0 mm 0.00 in0.0 mm 0.00 in0.0 mm
01:40 PM 97.3°F36.3°C 61.7°F16.5°C 31% 0.9 mph SSW1.4 kmh SSW 2.2 mph3.5 kmh 29.78 in1008.5 mb 0.00 in0.0 mm 0.00 in0.0 mm 0.00 in0.0 mm
01:45 PM 96.8°F36.0°C 59.4°F15.2°C 29% 1.8 mph SSE2.9 kmh SSE 2.2 mph3.5 kmh 29.78 in1008.5 mb 0.00 in0.0 mm 0.00 in0.0 mm 0.00 in0.0 mm
01:50 PM 96.6°F35.9°C 58.3°F14.6°C 28% 4.9 mph SSE7.9 kmh SSE 5.8 mph9.3 kmh 29.77 in1008.1 mb 0.00 in0.0 mm 0.00 in0.0 mm 0.00 in0.0 mm
01:55 PM 96.6°F35.9°C 61.2°F16.2°C 31% 2.2 mph SSE3.5 kmh SSE 3.4 mph5.5 kmh 29.77 in1008.1 mb 0.00 in0.0 mm 0.00 in0.0 mm 0.00 in0.0 mm
02:00 PM 96.1°F35.6°C 59.7°F15.4°C 30% 3.4 mph SE5.5 kmh SE 4.5 mph7.2 kmh 29.77 in1008.1 mb 0.00 in0.0 mm 0.00 in0.0 mm 0.00 in0.0 mm
02:05 PM 96.1°F35.6°C 60.6°F15.9°C 31% 2.5 mph ESE4.0 kmh ESE 3.4 mph5.5 kmh 29.77 in1008.1 mb 0.00 in0.0 mm 0.00 in0.0 mm 0.00 in0.0 mm
02:10 PM 96.3°F35.7°C 60.8°F16.0°C 31% 4.0 mph SE6.4 kmh SE 5.8 mph9.3 kmh 29.77 in1008.1 mb 0.00 in0.0 mm 0.00 in0.0 mm 0.00 in0.0 mm
02:15 PM 96.8°F36.0°C 61.3°F16.3°C 31% 1.1 mph SSE1.8 kmh SSE 2.2 mph3.5 kmh 29.77 in1008.1 mb 0.00 in0.0 mm 0.00 in0.0 mm 0.00 in0.0 mm
02:20 PM 97.0°F36.1°C 58.6°F14.8°C 28% 3.4 mph SE5.5 kmh SE 4.5 mph7.2 kmh 29.77 in1008.1 mb 0.00 in0.0 mm 0.00 in0.0 mm 0.00 in0.0 mm
02:25 PM 96.6°F35.9°C 59.2°F15.1°C 29% 6.5 mph SE10.5 kmh SE 8.1 mph13.0 kmh 29.77 in1008.1 mb 0.00 in0.0 mm 0.00 in0.0 mm 0.00 in0.0 mm
02:30 PM 95.7°F35.4°C 55.4°F13.0°C 26% 2.5 mph SE4.0 kmh SE 3.4 mph5.5 kmh 29.77 in1008.1 mb 0.00 in0.0 mm 0.00 in0.0 mm 0.00 in0.0 mm
02:35 PM 96.8°F36.0°C 55.2°F12.9°C 25% 3.1 mph S5.0 kmh S 3.4 mph5.5 kmh 29.77 in1008.1 mb 0.00 in0.0 mm 0.00 in0.0 mm 0.00 in0.0 mm
02:40 PM 96.4°F35.8°C 51.4°F10.8°C 22% 2.2 mph S3.5 kmh S 3.4 mph5.5 kmh 29.76 in1007.8 mb 0.00 in0.0 mm 0.00 in0.0 mm 0.00 in0.0 mm
02:45 PM 97.2°F36.2°C 59.7°F15.4°C 29% 1.6 mph SSE2.6 kmh SSE 2.2 mph3.5 kmh 29.76 in1007.8 mb 0.00 in0.0 mm 0.00 in0.0 mm 0.00 in0.0 mm
02:50 PM 98.1°F36.7°C 58.5°F14.7°C 27% 0.7 mph SSW1.1 kmh SSW 2.2 mph3.5 kmh 29.76 in1007.8 mb 0.00 in0.0 mm 0.00 in0.0 mm 0.00 in0.0 mm
02:55 PM 97.0°F36.1°C 55.4°F13.0°C 25% 0.4 mph SE0.6 kmh SE 1.1 mph1.8 kmh 29.76 in1007.8 mb 0.00 in0.0 mm 0.00 in0.0 mm 0.00 in0.0 mm
03:00 PM 97.9°F36.6°C 50.2°F10.1°C 20% 0.7 mph S1.1 kmh S 1.1 mph1.8 kmh 29.76 in1007.8 mb 0.00 in0.0 mm 0.00 in0.0 mm 0.00 in0.0 mm
03:05 PM 98.8°F37.1°C 50.9°F10.5°C 20% 1.1 mph SE1.8 kmh SE 1.1 mph1.8 kmh 29.76 in1007.8 mb 0.00 in0.0 mm 0.00 in0.0 mm 0.00 in0.0 mm
03:10 PM 99.9°F37.7°C 53.1°F11.7°C 21% 1.8 mph S2.9 kmh S 2.2 mph3.5 kmh 29.76 in1007.8 mb 0.00 in0.0 mm 0.00 in0.0 mm 0.00 in0.0 mm
03:15 PM 99.5°F37.5°C 50.0°F10.0°C 19% 2.0 mph S3.2 kmh S 3.4 mph5.5 kmh 29.76 in1007.8 mb 0.00 in0.0 mm 0.00 in0.0 mm 0.00 in0.0 mm
03:20 PM 99.7°F37.6°C 52.9°F11.6°C 21% 0.9 mph S1.4 kmh S 2.2 mph3.5 kmh 29.75 in1007.5 mb 0.00 in0.0 mm 0.00 in0.0 mm 0.00 in0.0 mm
03:25 PM 99.9°F37.7°C 48.9°F9.4°C 18% 2.0 mph S3.2 kmh S 3.4 mph5.5 kmh 29.76 in1007.8 mb 0.00 in0.0 mm 0.00 in0.0 mm 0.00 in0.0 mm
03:30 PM 100.0°F37.8°C 50.5°F10.3°C 19% 1.3 mph SE2.1 kmh SE 2.2 mph3.5 kmh 29.76 in1007.8 mb 0.00 in0.0 mm 0.00 in0.0 mm 0.00 in0.0 mm
03:35 PM 101.1°F38.4°C 46.8°F8.2°C 16% 1.3 mph SE2.1 kmh SE 2.2 mph3.5 kmh 29.75 in1007.5 mb 0.00 in0.0 mm 0.00 in0.0 mm 0.00 in0.0 mm
03:40 PM 101.3°F38.5°C 46.9°F8.3°C 16% 2.0 mph SSW3.2 kmh SSW 3.4 mph5.5 kmh 29.74 in1007.1 mb 0.00 in0.0 mm 0.00 in0.0 mm 0.00 in0.0 mm
03:45 PM 100.2°F37.9°C 42.6°F5.9°C 14% 0.9 mph SSW1.4 kmh SSW 1.1 mph1.8 kmh 29.75 in1007.5 mb 0.00 in0.0 mm 0.00 in0.0 mm 0.00 in0.0 mm
03:50 PM 98.6°F37.0°C 49.3°F9.6°C 19% 0.9 mph S1.4 kmh S 1.1 mph1.8 kmh 29.75 in1007.5 mb 0.00 in0.0 mm 0.00 in0.0 mm 0.00 in0.0 mm
03:55 PM 99.3°F37.4°C 45.3°F7.4°C 16% 0.4 mph SSW0.6 kmh SSW 1.1 mph1.8 kmh 29.75 in1007.5 mb 0.00 in0.0 mm 0.00 in0.0 mm 0.00 in0.0 mm
04:00 PM 100.6°F38.1°C 50.9°F10.5°C 19% 0.9 mph W1.4 kmh W 1.1 mph1.8 kmh 29.75 in1007.5 mb 0.00 in0.0 mm 0.00 in0.0 mm 0.00 in0.0 mm
04:05 PM 97.3°F36.3°C 46.9°F8.3°C 18% 0.9 mph SE1.4 kmh SE 2.2 mph3.5 kmh 29.75 in1007.5 mb 0.00 in0.0 mm 0.00 in0.0 mm 0.00 in0.0 mm
04:10 PM 99.1°F37.3°C 52.5°F11.4°C 21% 0.9 mph SW1.4 kmh SW 1.1 mph1.8 kmh 29.75 in1007.5 mb 0.00 in0.0 mm 0.00 in0.0 mm 0.00 in0.0 mm
04:15 PM 99.5°F37.5°C 47.1°F8.4°C 17% 2.2 mph E3.5 kmh E 3.4 mph5.5 kmh 29.75 in1007.5 mb 0.00 in0.0 mm 0.00 in0.0 mm 0.00 in0.0 mm
04:20 PM 99.5°F37.5°C 50.0°F10.0°C 19% 1.1 mph S1.8 kmh S 2.2 mph3.5 kmh 29.75 in1007.5 mb 0.00 in0.0 mm 0.00 in0.0 mm 0.00 in0.0 mm
04:25 PM 99.3°F37.4°C 43.7°F6.5°C 15% 0.7 mph SSE1.1 kmh SSE 1.1 mph1.8 kmh 29.75 in1007.5 mb 0.00 in0.0 mm 0.00 in0.0 mm 0.00 in0.0 mm
04:30 PM 99.5°F37.5°C 43.9°F6.6°C 15% 2.2 mph SE3.5 kmh SE 3.4 mph5.5 kmh 29.75 in1007.5 mb 0.00 in0.0 mm 0.00 in0.0 mm 0.00 in0.0 mm
04:35 PM 99.5°F37.5°C 47.1°F8.4°C 17% 1.8 mph SE2.9 kmh SE 2.2 mph3.5 kmh 29.75 in1007.5 mb 0.00 in0.0 mm 0.00 in0.0 mm 0.00 in0.0 mm
04:40 PM 99.0°F37.2°C 46.6°F8.1°C 17% 2.5 mph SSE4.0 kmh SSE 3.4 mph5.5 kmh 29.75 in1007.5 mb 0.00 in0.0 mm 0.00 in0.0 mm 0.00 in0.0 mm
04:45 PM 99.0°F37.2°C 49.6°F9.8°C 19% 2.2 mph SSE3.5 kmh SSE 2.2 mph3.5 kmh 29.75 in1007.5 mb 0.00 in0.0 mm 0.00 in0.0 mm 0.00 in0.0 mm
04:50 PM 98.2°F36.8°C 49.1°F9.5°C 19% 4.3 mph SE6.9 kmh SE 5.8 mph9.3 kmh 29.75 in1007.5 mb 0.00 in0.0 mm 0.00 in0.0 mm 0.00 in0.0 mm
04:55 PM 97.7°F36.5°C 44.1°F6.7°C 16% 2.0 mph SSE3.2 kmh SSE 2.2 mph3.5 kmh 29.74 in1007.1 mb 0.00 in0.0 mm 0.00 in0.0 mm 0.00 in0.0 mm
05:00 PM 97.9°F36.6°C 47.3°F8.5°C 18% 0.9 mph S1.4 kmh S 1.1 mph1.8 kmh 29.75 in1007.5 mb 0.00 in0.0 mm 0.00 in0.0 mm 0.00 in0.0 mm
05:05 PM 98.8°F37.1°C 39.6°F4.2°C 13% 0.9 mph SSW1.4 kmh SSW 1.1 mph1.8 kmh 29.75 in1007.5 mb 0.00 in0.0 mm 0.00 in0.0 mm 0.00 in0.0 mm
05:10 PM 98.8°F37.1°C 39.6°F4.2°C 13% 1.8 mph SSE2.9 kmh SSE 2.2 mph3.5 kmh 29.74 in1007.1 mb 0.00 in0.0 mm 0.00 in0.0 mm 0.00 in0.0 mm
05:15 PM 99.0°F37.2°C 41.5°F5.3°C 14% 1.8 mph S2.9 kmh S 2.2 mph3.5 kmh 29.74 in1007.1 mb 0.00 in0.0 mm 0.00 in0.0 mm 0.00 in0.0 mm
05:20 PM 98.1°F36.7°C 39.0°F3.9°C 13% 0.4 mph S0.6 kmh S 1.1 mph1.8 kmh 29.74 in1007.1 mb 0.00 in0.0 mm 0.00 in0.0 mm 0.00 in0.0 mm
05:25 PM 96.8°F36.0°C 47.8°F8.8°C 19% 0.4 mph SSW0.6 kmh SSW 1.1 mph1.8 kmh 29.75 in1007.5 mb 0.00 in0.0 mm 0.00 in0.0 mm 0.00 in0.0 mm
05:30 PM 94.6°F34.8°C 56.7°F13.7°C 28% 0.9 mph S1.4 kmh S 1.1 mph1.8 kmh 29.73 in1006.8 mb 0.00 in0.0 mm 0.00 in0.0 mm 0.00 in0.0 mm
05:35 PM 94.3°F34.6°C 54.3°F12.4°C 26% 1.6 mph SW2.6 kmh SW 2.2 mph3.5 kmh 29.75 in1007.5 mb 0.00 in0.0 mm 0.00 in0.0 mm 0.00 in0.0 mm
05:40 PM 92.5°F33.6°C 49.5°F9.7°C 23% 4.0 mph SE6.4 kmh SE 5.8 mph9.3 kmh 29.73 in1006.8 mb 0.00 in0.0 mm 0.00 in0.0 mm 0.00 in0.0 mm
05:45 PM 91.6°F33.1°C 52.9°F11.6°C 27% 0.2 mph SSW0.3 kmh SSW 1.1 mph1.8 kmh 29.74 in1007.1 mb 0.00 in0.0 mm 0.00 in0.0 mm 0.00 in0.0 mm
05:50 PM 90.1°F32.3°C 52.7°F11.5°C 28% Calm Calm -- 29.73 in1006.8 mb 0.00 in0.0 mm 0.00 in0.0 mm 0.00 in0.0 mm
05:55 PM 88.9°F31.6°C 53.4°F11.9°C 30% 2.7 mph SW4.3 kmh SW 4.5 mph7.2 kmh 29.73 in1006.8 mb 0.00 in0.0 mm 0.00 in0.0 mm 0.00 in0.0 mm
06:00 PM 88.7°F31.5°C 52.5°F11.4°C 29% 1.3 mph SSW2.1 kmh SSW 2.2 mph3.5 kmh 29.74 in1007.1 mb 0.00 in0.0 mm 0.00 in0.0 mm 0.00 in0.0 mm
06:05 PM 88.7°F31.5°C 53.4°F11.9°C 30% 2.9 mph WSW4.7 kmh WSW 4.5 mph7.2 kmh 29.74 in1007.1 mb 0.00 in0.0 mm 0.00 in0.0 mm 0.00 in0.0 mm
06:10 PM 87.4°F30.8°C 54.0°F12.2°C 32% 1.6 mph WNW2.6 kmh WNW 2.2 mph3.5 kmh 29.74 in1007.1 mb 0.00 in0.0 mm 0.00 in0.0 mm 0.00 in0.0 mm
06:15 PM 87.1°F30.6°C 52.9°F11.6°C 31% 2.2 mph SSW3.5 kmh SSW 2.2 mph3.5 kmh 29.74 in1007.1 mb 0.00 in0.0 mm 0.00 in0.0 mm 0.00 in0.0 mm
06:20 PM 86.5°F30.3°C 53.2°F11.8°C 32% 2.2 mph SSW3.5 kmh SSW 2.2 mph3.5 kmh 29.74 in1007.1 mb 0.00 in0.0 mm 0.00 in0.0 mm 0.00 in0.0 mm
06:25 PM 86.4°F30.2°C 54.0°F12.2°C 33% 1.1 mph SSW1.8 kmh SSW 1.1 mph1.8 kmh 29.74 in1007.1 mb 0.00 in0.0 mm 0.00 in0.0 mm 0.00 in0.0 mm
06:30 PM 86.5°F30.3°C 54.1°F12.3°C 33% 2.2 mph ENE3.5 kmh ENE 3.4 mph5.5 kmh 29.74 in1007.1 mb 0.00 in0.0 mm 0.00 in0.0 mm 0.00 in0.0 mm
06:35 PM 86.2°F30.1°C 55.4°F13.0°C 35% 1.3 mph S2.1 kmh S 2.2 mph3.5 kmh 29.74 in1007.1 mb 0.00 in0.0 mm 0.00 in0.0 mm 0.00 in0.0 mm
06:40 PM 85.6°F29.8°C 55.8°F13.2°C 36% 4.0 mph NNW6.4 kmh NNW 4.5 mph7.2 kmh 29.75 in1007.5 mb 0.00 in0.0 mm 0.00 in0.0 mm 0.00 in0.0 mm
06:45 PM 86.2°F30.1°C 57.7°F14.3°C 38% 1.6 mph SE2.6 kmh SE 2.2 mph3.5 kmh 29.74 in1007.1 mb 0.00 in0.0 mm 0.00 in0.0 mm 0.00 in0.0 mm
06:50 PM 85.8°F29.9°C 58.8°F14.9°C 40% 1.8 mph SE2.9 kmh SE 2.2 mph3.5 kmh 29.75 in1007.5 mb 0.00 in0.0 mm 0.00 in0.0 mm 0.00 in0.0 mm
06:55 PM 85.3°F29.6°C 59.7°F15.4°C 42% 1.3 mph S2.1 kmh S 2.2 mph3.5 kmh 29.74 in1007.1 mb 0.00 in0.0 mm 0.00 in0.0 mm 0.00 in0.0 mm
07:00 PM 85.1°F29.5°C 60.8°F16.0°C 44% 0.2 mph SSW0.3 kmh SSW 1.1 mph1.8 kmh 29.74 in1007.1 mb 0.00 in0.0 mm 0.00 in0.0 mm 0.00 in0.0 mm
07:05 PM 84.7°F29.3°C 61.2°F16.2°C 45% 1.3 mph S2.1 kmh S 2.2 mph3.5 kmh 29.74 in1007.1 mb 0.00 in0.0 mm 0.00 in0.0 mm 0.00 in0.0 mm
07:10 PM 84.4°F29.1°C 61.3°F16.3°C 46% 0.9 mph SSW1.4 kmh SSW 1.1 mph1.8 kmh 29.75 in1007.5 mb 0.00 in0.0 mm 0.00 in0.0 mm 0.00 in0.0 mm
07:15 PM 84.0°F28.9°C 61.7°F16.5°C 47% 0.2 mph SSW0.3 kmh SSW 1.1 mph1.8 kmh 29.75 in1007.5 mb 0.00 in0.0 mm 0.00 in0.0 mm 0.00 in0.0 mm
07:20 PM 83.5°F28.6°C 61.7°F16.5°C 48% 0.9 mph S1.4 kmh S 1.1 mph1.8 kmh 29.75 in1007.5 mb 0.00 in0.0 mm 0.00 in0.0 mm 0.00 in0.0 mm
07:25 PM 82.9°F28.3°C 61.9°F16.6°C 49% 0.2 mph SSW0.3 kmh SSW 1.1 mph1.8 kmh 29.75 in1007.5 mb 0.00 in0.0 mm 0.00 in0.0 mm 0.00 in0.0 mm
07:30 PM 82.4°F28.0°C 61.3°F16.3°C 49% 0.7 mph S1.1 kmh S 1.1 mph1.8 kmh 29.76 in1007.8 mb 0.00 in0.0 mm 0.00 in0.0 mm 0.00 in0.0 mm
07:35 PM 82.2°F27.9°C 60.6°F15.9°C 48% 0.9 mph SSW1.4 kmh SSW 1.1 mph1.8 kmh 29.75 in1007.5 mb 0.00 in0.0 mm 0.00 in0.0 mm 0.00 in0.0 mm
07:40 PM 82.4°F28.0°C 59.5°F15.3°C 46% 1.3 mph SE2.1 kmh SE 2.2 mph3.5 kmh 29.76 in1007.8 mb 0.00 in0.0 mm 0.00 in0.0 mm 0.00 in0.0 mm
07:45 PM 82.6°F28.1°C 59.2°F15.1°C 45% 0.9 mph S1.4 kmh S 1.1 mph1.8 kmh 29.76 in1007.8 mb 0.00 in0.0 mm 0.00 in0.0 mm 0.00 in0.0 mm
07:50 PM 82.8°F28.2°C 58.6°F14.8°C 44% 0.7 mph SSW1.1 kmh SSW 2.2 mph3.5 kmh 29.76 in1007.8 mb 0.00 in0.0 mm 0.00 in0.0 mm 0.00 in0.0 mm
07:55 PM 82.8°F28.2°C 58.6°F14.8°C 44% 2.0 mph S3.2 kmh S 2.2 mph3.5 kmh 29.76 in1007.8 mb 0.00 in0.0 mm 0.00 in0.0 mm 0.00 in0.0 mm
08:00 PM 82.6°F28.1°C 59.2°F15.1°C 45% 1.1 mph SE1.8 kmh SE 3.4 mph5.5 kmh 29.76 in1007.8 mb 0.00 in0.0 mm 0.00 in0.0 mm 0.00 in0.0 mm
08:05 PM 82.4°F28.0°C 59.5°F15.3°C 46% 1.1 mph S1.8 kmh S 2.2 mph3.5 kmh 29.76 in1007.8 mb 0.00 in0.0 mm 0.00 in0.0 mm 0.00 in0.0 mm
08:10 PM 82.2°F27.9°C 60.6°F15.9°C 48% 0.4 mph S0.6 kmh S 1.1 mph1.8 kmh 29.76 in1007.8 mb 0.00 in0.0 mm 0.00 in0.0 mm 0.00 in0.0 mm
08:15 PM 81.7°F27.6°C 61.3°F16.3°C 50% 0.4 mph SSE0.6 kmh SSE 1.1 mph1.8 kmh 29.77 in1008.1 mb 0.00 in0.0 mm 0.00 in0.0 mm 0.00 in0.0 mm
08:20 PM 81.1°F27.3°C 61.9°F16.6°C 52% 0.7 mph SSW1.1 kmh SSW 1.1 mph1.8 kmh 29.77 in1008.1 mb 0.00 in0.0 mm 0.00 in0.0 mm 0.00 in0.0 mm
08:25 PM 80.8°F27.1°C 63.1°F17.3°C 55% 1.3 mph S2.1 kmh S 2.2 mph3.5 kmh 29.77 in1008.1 mb 0.00 in0.0 mm 0.00 in0.0 mm 0.00 in0.0 mm
08:30 PM 80.4°F26.9°C 63.9°F17.7°C 57% 0.9 mph SE1.4 kmh SE 1.1 mph1.8 kmh 29.76 in1007.8 mb 0.00 in0.0 mm 0.00 in0.0 mm 0.00 in0.0 mm
08:35 PM 80.2°F26.8°C 64.6°F18.1°C 59% 0.2 mph S0.3 kmh S 1.1 mph1.8 kmh 29.77 in1008.1 mb 0.00 in0.0 mm 0.00 in0.0 mm 0.00 in0.0 mm
08:40 PM 80.1°F26.7°C 65.5°F18.6°C 61% 0.7 mph SSW1.1 kmh SSW 1.1 mph1.8 kmh 29.77 in1008.1 mb 0.00 in0.0 mm 0.00 in0.0 mm 0.00 in0.0 mm
08:45 PM 80.2°F26.8°C 65.7°F18.7°C 61% 1.8 mph SE2.9 kmh SE 2.2 mph3.5 kmh 29.77 in1008.1 mb 0.00 in0.0 mm 0.00 in0.0 mm 0.00 in0.0 mm
08:50 PM 80.6°F27.0°C 66.0°F18.9°C 61% 1.3 mph SE2.1 kmh SE 2.2 mph3.5 kmh 29.78 in1008.5 mb 0.00 in0.0 mm 0.00 in0.0 mm 0.00 in0.0 mm
08:55 PM 80.4°F26.9°C 65.8°F18.8°C 61% 0.4 mph S0.6 kmh S 1.1 mph1.8 kmh 29.78 in1008.5 mb 0.00 in0.0 mm 0.00 in0.0 mm 0.00 in0.0 mm
09:00 PM 80.2°F26.8°C 65.7°F18.7°C 61% 1.1 mph S1.8 kmh S 2.2 mph3.5 kmh 29.78 in1008.5 mb 0.00 in0.0 mm 0.00 in0.0 mm 0.00 in0.0 mm
09:05 PM 80.1°F26.7°C 65.5°F18.6°C 61% 0.4 mph SE0.6 kmh SE 1.1 mph1.8 kmh 29.78 in1008.5 mb 0.00 in0.0 mm 0.00 in0.0 mm 0.00 in0.0 mm
09:10 PM 79.5°F26.4°C 64.9°F18.3°C 61% 0.9 mph S1.4 kmh S 1.1 mph1.8 kmh 29.78 in1008.5 mb 0.00 in0.0 mm 0.00 in0.0 mm 0.00 in0.0 mm
09:15 PM 79.3°F26.3°C 65.1°F18.4°C 62% Calm Calm -- 29.78 in1008.5 mb 0.00 in0.0 mm 0.00 in0.0 mm 0.00 in0.0 mm
09:20 PM 78.6°F25.9°C 64.0°F17.8°C 61% 0.2 mph S0.3 kmh S 1.1 mph1.8 kmh 29.79 in1008.8 mb 0.00 in0.0 mm 0.00 in0.0 mm 0.00 in0.0 mm
09:25 PM 78.4°F25.8°C 63.5°F17.5°C 60% Calm Calm -- 29.79 in1008.8 mb 0.00 in0.0 mm 0.00 in0.0 mm 0.00 in0.0 mm
09:30 PM 78.3°F25.7°C 62.8°F17.1°C 59% 0.2 mph S0.3 kmh S 1.1 mph1.8 kmh 29.78 in1008.5 mb 0.00 in0.0 mm 0.00 in0.0 mm 0.00 in0.0 mm
09:35 PM 77.9°F25.5°C 62.4°F16.9°C 59% 0.4 mph S0.6 kmh S 1.1 mph1.8 kmh 29.79 in1008.8 mb 0.00 in0.0 mm 0.00 in0.0 mm 0.00 in0.0 mm
09:40 PM 77.5°F25.3°C 62.6°F17.0°C 60% Calm Calm -- 29.79 in1008.8 mb 0.00 in0.0 mm 0.00 in0.0 mm 0.00 in0.0 mm
09:45 PM 77.0°F25.0°C 63.0°F17.2°C 62% Calm Calm -- 29.79 in1008.8 mb 0.00 in0.0 mm 0.00 in0.0 mm 0.00 in0.0 mm
09:50 PM 76.1°F24.5°C 62.1°F16.7°C 62% Calm Calm -- 29.78 in1008.5 mb 0.00 in0.0 mm 0.00 in0.0 mm 0.00 in0.0 mm
09:55 PM 75.7°F24.3°C 61.9°F16.6°C 62% Calm Calm -- 29.79 in1008.8 mb 0.00 in0.0 mm 0.00 in0.0 mm 0.00 in0.0 mm
10:00 PM 75.4°F24.1°C 60.6°F15.9°C 60% 0.2 mph S0.3 kmh S 1.1 mph1.8 kmh 29.79 in1008.8 mb 0.00 in0.0 mm 0.00 in0.0 mm 0.00 in0.0 mm
10:05 PM 75.0°F23.9°C 60.3°F15.7°C 60% Calm Calm -- 29.78 in1008.5 mb 0.00 in0.0 mm 0.00 in0.0 mm 0.00 in0.0 mm
10:10 PM 74.8°F23.8°C 60.1°F15.6°C 60% Calm Calm -- 29.78 in1008.5 mb 0.00 in0.0 mm 0.00 in0.0 mm 0.00 in0.0 mm
10:15 PM 74.5°F23.6°C 58.8°F14.9°C 58% Calm Calm -- 29.78 in1008.5 mb 0.00 in0.0 mm 0.00 in0.0 mm 0.00 in0.0 mm
10:20 PM 74.8°F23.8°C 58.6°F14.8°C 57% Calm Calm -- 29.79 in1008.8 mb 0.00 in0.0 mm 0.00 in0.0 mm 0.00 in0.0 mm
10:25 PM 75.0°F23.9°C 58.8°F14.9°C 57% Calm Calm -- 29.79 in1008.8 mb 0.00 in0.0 mm 0.00 in0.0 mm 0.00 in0.0 mm
10:30 PM 74.7°F23.7°C 59.0°F15.0°C 58% 0.7 mph SSW1.1 kmh SSW 1.1 mph1.8 kmh 29.79 in1008.8 mb 0.00 in0.0 mm 0.00 in0.0 mm 0.00 in0.0 mm
10:35 PM 74.1°F23.4°C 59.0°F15.0°C 59% Calm Calm -- 29.78 in1008.5 mb 0.00 in0.0 mm 0.00 in0.0 mm 0.00 in0.0 mm
10:40 PM 73.4°F23.0°C 58.8°F14.9°C 60% 0.7 mph S1.1 kmh S 1.1 mph1.8 kmh 29.80 in1009.1 mb 0.00 in0.0 mm 0.00 in0.0 mm 0.00 in0.0 mm
10:45 PM 73.6°F23.1°C 58.5°F14.7°C 59% Calm Calm -- 29.79 in1008.8 mb 0.00 in0.0 mm 0.00 in0.0 mm 0.00 in0.0 mm
10:50 PM 72.9°F22.7°C 59.0°F15.0°C 62% Calm Calm -- 29.79 in1008.8 mb 0.00 in0.0 mm 0.00 in0.0 mm 0.00 in0.0 mm
10:55 PM 72.0°F22.2°C 59.2°F15.1°C 64% Calm Calm -- 29.78 in1008.5 mb 0.00 in0.0 mm 0.00 in0.0 mm 0.00 in0.0 mm
11:00 PM 71.2°F21.8°C 58.5°F14.7°C 64% Calm Calm -- 29.79 in1008.8 mb 0.00 in0.0 mm 0.00 in0.0 mm 0.00 in0.0 mm
11:05 PM 71.4°F21.9°C 58.6°F14.8°C 64% Calm Calm -- 29.79 in1008.8 mb 0.00 in0.0 mm 0.00 in0.0 mm 0.00 in0.0 mm
11:10 PM 70.9°F21.6°C 58.6°F14.8°C 65% 0.2 mph SSW0.3 kmh SSW 1.1 mph1.8 kmh 29.79 in1008.8 mb 0.00 in0.0 mm 0.00 in0.0 mm 0.00 in0.0 mm
11:15 PM 70.9°F21.6°C 58.1°F14.5°C 64% 0.7 mph SSE1.1 kmh SSE 1.1 mph1.8 kmh 29.78 in1008.5 mb 0.00 in0.0 mm 0.00 in0.0 mm 0.00 in0.0 mm
11:20 PM 70.7°F21.5°C 58.8°F14.9°C 66% 0.2 mph SSW0.3 kmh SSW 1.1 mph1.8 kmh 29.79 in1008.8 mb 0.00 in0.0 mm 0.00 in0.0 mm 0.00 in0.0 mm
11:25 PM 69.8°F21.0°C 58.8°F14.9°C 68% 0.2 mph SSW0.3 kmh SSW 1.1 mph1.8 kmh 29.79 in1008.8 mb 0.00 in0.0 mm 0.00 in0.0 mm 0.00 in0.0 mm
11:30 PM 69.8°F21.0°C 58.8°F14.9°C 68% 1.3 mph SSW2.1 kmh SSW 2.2 mph3.5 kmh 29.79 in1008.8 mb 0.00 in0.0 mm 0.00 in0.0 mm 0.00 in0.0 mm
11:35 PM 69.3°F20.7°C 58.3°F14.6°C 68% Calm Calm -- 29.79 in1008.8 mb 0.00 in0.0 mm 0.00 in0.0 mm 0.00 in0.0 mm
11:40 PM 69.3°F20.7°C 58.3°F14.6°C 68% Calm Calm -- 29.79 in1008.8 mb 0.00 in0.0 mm 0.00 in0.0 mm 0.00 in0.0 mm
11:45 PM 68.9°F20.5°C 58.3°F14.6°C 69% Calm Calm -- 29.79 in1008.8 mb 0.00 in0.0 mm 0.00 in0.0 mm 0.00 in0.0 mm
11:50 PM 69.3°F20.7°C 58.3°F14.6°C 68% 0.2 mph SSW0.3 kmh SSW 1.1 mph1.8 kmh 29.80 in1009.1 mb 0.00 in0.0 mm 0.00 in0.0 mm 0.00 in0.0 mm
11:55 PM 69.1°F20.6°C 58.5°F14.7°C 69% 0.9 mph SSE1.4 kmh SSE 1.1 mph1.8 kmh 29.79 in1008.8 mb 0.00 in0.0 mm 0.00 in0.0 mm 0.00 in0.0 mm